Terminal Aerodrome Forecast
Issued by NWS

Home | Current Version | Previous Version | Text Only | Print | Product List | Glossary On
Versions: 1 2 3 4 5 6 7 8 9 10 11 12 13 14 15 16 17 18 19 20 21 22
000
FTUS45 KVEF 012320
TAFHND
TAF
KHND 012320Z 0200/0224 16011G19KT P6SM BKN250
     FM020300 18008KT P6SM BKN250
     FM021500 18007KT P6SM FEW140 BKN250
     FM022000 15012G20KT P6SM SCT140 BKN250
     AMD NOT SKED=

USA.gov is the U.S. government's official web portal to all federal, state and local government web resources and services.